Time;durP1;ratioP1;P1;durP2;ratioP2;P2;SDS_P1;SDS_P2;PMS_P1;PMS_P2;Temp;Humidity;BMP_temperature;BMP_pressure;BME280_temperature;BME280_humidity;BME280_pressure;Samples;Min_cycle;Max_cycle;Signal;HPM_P1;HPM_P2
2022/11/05 00:09:49;;;;;;;2.90;2.40;;;9.40;26.10;;;;;;7366682;19;20033;-69
2022/11/05 00:17:46;;;;;;;5.07;2.42;;;9.30;25.20;;;;;;7361978;19;20011;-67
2022/11/05 00:20:16;;;;;;;4.05;2.35;;;9.30;25.00;;;;;;7364128;19;20010;-66
2022/11/05 00:25:29;;;;;;;4.28;2.13;;;9.30;26.20;;;;;;7364441;19;20018;-67
2022/11/05 00:28:02;;;;;;;3.00;2.38;;;9.30;26.50;;;;;;7361133;19;20014;-68
2022/11/05 00:30:35;;;;;;;3.60;2.43;;;9.30;25.90;;;;;;7383189;19;20015;-67
2022/11/05 00:33:05;;;;;;;6.05;2.78;;;9.30;26.60;;;;;;7363983;19;20243;-67
2022/11/05 00:35:34;;;;;;;3.60;2.58;;;9.30;27.30;;;;;;7363104;19;20019;-67
2022/11/05 00:38:04;;;;;;;2.78;2.08;;;9.20;27.10;;;;;;7363898;19;20014;-68
2022/11/05 00:40:34;;;;;;;3.03;2.25;;;9.20;27.90;;;;;;7363155;19;20770;-68
2022/11/05 00:45:49;;;;;;;4.25;2.70;;;9.10;29.00;;;;;;7363413;19;20710;-68
2022/11/05 00:51:01;;;;;;;4.68;3.40;;;9.10;30.30;;;;;;7362381;19;20010;-68
2022/11/05 00:53:30;;;;;;;8.48;4.22;;;9.00;30.30;;;;;;7364638;19;20034;-69
2022/11/05 00:56:00;;;;;;;7.00;3.17;;;9.00;30.80;;;;;;7363165;19;20094;-67
2022/11/05 00:58:31;;;;;;;6.38;3.50;;;9.00;31.60;;;;;;7362822;19;20011;-68
2022/11/05 01:01:04;;;;;;;7.85;3.50;;;9.00;32.80;;;;;;7363060;19;20431;-68
2022/11/05 01:03:36;;;;;;;5.93;3.55;;;9.00;32.90;;;;;;7385799;19;20613;-68
2022/11/05 01:06:12;;;;;;;5.72;3.78;;;9.00;32.90;;;;;;7366197;19;20018;-67
2022/11/05 01:08:43;;;;;;;6.30;3.72;;;8.90;32.80;;;;;;7361824;19;20091;-68
2022/11/05 01:11:31;;;;;;;5.40;3.60;;;8.90;32.80;;;;;;7362489;19;20033;-68
2022/11/05 01:14:03;;;;;;;6.00;3.58;;;8.90;33.30;;;;;;7363573;19;20340;-68
2022/11/05 01:16:36;;;;;;;4.93;4.05;;;9.00;34.50;;;;;;7361600;19;20010;-68
2022/11/05 01:19:07;;;;;;;5.18;3.63;;;9.00;34.10;;;;;;7363424;19;20000;-68
2022/11/05 01:21:37;;;;;;;5.25;4.03;;;9.00;33.80;;;;;;7383676;19;20483;-68
2022/11/05 01:24:09;;;;;;;5.97;3.90;;;9.00;33.90;;;;;;7362058;19;20014;-68
2022/11/05 01:26:39;;;;;;;7.43;4.22;;;9.00;33.70;;;;;;7360005;19;20014;-68
2022/11/05 01:29:08;;;;;;;7.53;4.57;;;9.10;34.50;;;;;;7362402;19;20010;-68
2022/11/05 01:31:41;;;;;;;5.88;4.13;;;9.00;34.50;;;;;;7361226;19;20360;-68
2022/11/05 01:34:11;;;;;;;7.15;4.00;;;9.00;34.00;;;;;;7362036;19;20015;-67
2022/11/05 01:36:40;;;;;;;6.13;4.53;;;9.00;35.50;;;;;;7381898;19;20441;-68
2022/11/05 01:39:10;;;;;;;6.20;4.05;;;9.00;35.90;;;;;;7365776;19;20038;-68
2022/11/05 01:41:40;;;;;;;9.38;4.47;;;9.00;35.80;;;;;;7362630;19;20011;-68
2022/11/05 01:44:39;;;;;;;6.30;4.30;;;9.00;35.60;;;;;;7362025;19;20038;-68
2022/11/05 01:47:25;;;;;;;5.53;4.05;;;9.00;35.00;;;;;;7358881;19;20482;-68
2022/11/05 01:49:56;;;;;;;6.65;4.43;;;9.10;36.00;;;;;;7360963;19;20017;-68
2022/11/05 01:52:26;;;;;;;5.55;4.10;;;9.00;35.80;;;;;;7362505;19;20014;-68
2022/11/05 01:54:56;;;;;;;8.05;4.32;;;9.00;36.20;;;;;;7361136;19;20014;-68
2022/11/05 01:57:27;;;;;;;6.40;4.80;;;9.10;36.60;;;;;;7380722;19;20025;-68
2022/11/05 02:00:01;;;;;;;5.05;3.83;;;9.10;36.60;;;;;;7361992;19;20014;-68
2022/11/05 02:02:33;;;;;;;6.95;5.07;;;9.00;37.20;;;;;;7363354;19;20022;-67
2022/11/05 02:05:07;;;;;;;7.88;5.00;;;9.00;36.10;;;;;;7361390;19;20503;-67
2022/11/05 02:07:37;;;;;;;7.40;4.80;;;9.00;37.20;;;;;;7360061;19;20021;-67
2022/11/05 02:10:12;;;;;;;6.18;4.72;;;9.00;37.10;;;;;;7360591;19;20227;-67
2022/11/05 02:12:45;;;;;;;9.05;5.40;;;9.10;37.20;;;;;;7382202;19;20498;-68
2022/11/05 02:15:19;;;;;;;5.93;5.00;;;9.00;37.00;;;;;;7361132;19;20021;-68
2022/11/05 02:18:00;;;;;;;8.30;5.25;;;9.00;37.20;;;;;;7358299;19;20093;-68
2022/11/05 02:20:40;;;;;;;6.57;5.10;;;9.00;37.10;;;;;;7359538;19;20097;-68
2022/11/05 02:23:47;;;;;;;6.43;4.70;;;9.00;37.20;;;;;;7361078;19;20010;-68
2022/11/05 02:26:46;;;;;;;6.78;5.30;;;9.10;37.80;;;;;;7359926;19;20038;-67
2022/11/05 02:29:40;;;;;;;6.43;4.85;;;9.10;36.70;;;;;;7360504;19;20015;-68
2022/11/05 02:32:20;;;;;;;6.40;5.55;;;9.10;37.10;;;;;;7361173;19;20014;-68
2022/11/05 02:34:57;;;;;;;8.18;5.88;;;9.00;37.20;;;;;;7361244;19;20064;-68
2022/11/05 02:37:39;;;;;;;8.20;5.53;;;9.10;37.30;;;;;;7359579;19;20470;-68
2022/11/05 02:40:19;;;;;;;8.55;6.03;;;9.00;37.30;;;;;;7359905;19;20017;-68
2022/11/05 02:42:59;;;;;;;7.25;5.55;;;9.10;37.80;;;;;;7363973;19;20025;-68
2022/11/05 02:45:42;;;;;;;8.95;6.05;;;9.00;37.50;;;;;;7381366;19;20018;-68
2022/11/05 02:48:22;;;;;;;7.55;6.30;;;9.00;38.20;;;;;;7359016;19;20014;-68
2022/11/05 02:50:58;;;;;;;8.43;5.85;;;9.10;38.70;;;;;;7358470;19;20366;-68
2022/11/05 02:53:35;;;;;;;9.25;6.63;;;9.10;38.50;;;;;;7361186;19;20038;-68
2022/11/05 02:56:10;;;;;;;8.93;6.50;;;9.10;38.50;;;;;;7361589;19;20390;-68
2022/11/05 02:58:40;;;;;;;9.50;6.05;;;9.10;39.00;;;;;;7361016;19;20042;-68
2022/11/05 03:01:12;;;;;;;9.90;6.28;;;9.10;38.90;;;;;;7359880;19;20015;-68
2022/11/05 03:03:47;;;;;;;7.70;6.30;;;9.00;39.40;;;;;;7381646;19;20035;-68
2022/11/05 03:06:53;;;;;;;8.75;6.78;;;9.00;40.10;;;;;;7359370;19;20474;-68
2022/11/05 03:09:36;;;;;;;8.88;6.30;;;9.00;40.50;;;;;;7359203;19;20014;-68
2022/11/05 03:12:17;;;;;;;8.05;6.10;;;9.00;41.30;;;;;;7357190;19;20014;-68
2022/11/05 03:14:57;;;;;;;9.48;6.40;;;9.00;41.00;;;;;;7363991;19;20011;-68
2022/11/05 03:17:35;;;;;;;8.00;6.65;;;9.00;41.40;;;;;;7363803;19;20014;-68
2022/11/05 03:20:17;;;;;;;11.88;7.40;;;9.00;41.40;;;;;;7366613;19;20011;-68
2022/11/05 03:22:53;;;;;;;10.57;7.38;;;8.90;41.40;;;;;;7366797;19;20513;-68
2022/11/05 03:25:25;;;;;;;10.85;7.63;;;8.90;42.30;;;;;;7366847;19;20025;-68
2022/11/05 03:27:59;;;;;;;10.90;7.57;;;8.90;42.80;;;;;;7364172;19;20018;-68
2022/11/05 03:30:29;;;;;;;11.93;8.15;;;8.90;43.40;;;;;;7387595;19;20469;-68
2022/11/05 03:33:04;;;;;;;10.55;7.60;;;9.00;43.40;;;;;;7365791;19;20312;-68
2022/11/05 03:35:41;;;;;;;12.82;8.25;;;9.00;43.30;;;;;;7366120;19;20015;-68
2022/11/05 03:38:17;;;;;;;13.18;8.27;;;9.00;43.60;;;;;;7366942;19;20014;-68
2022/11/05 03:40:49;;;;;;;14.35;9.50;;;9.00;44.00;;;;;;7365796;19;20010;-68
2022/11/05 03:43:22;;;;;;;12.48;9.32;;;9.00;43.90;;;;;;7366805;19;20007;-68
2022/11/05 03:45:57;;;;;;;13.32;9.93;;;9.00;44.00;;;;;;7365682;19;20039;-68
2022/11/05 03:48:32;;;;;;;12.77;9.95;;;9.00;44.40;;;;;;7388832;19;20014;-67
2022/11/05 03:51:09;;;;;;;11.10;9.10;;;9.00;44.80;;;;;;7364294;19;20014;-68
2022/11/05 03:53:45;;;;;;;11.82;8.82;;;8.90;44.70;;;;;;7369301;19;20018;-68
2022/11/05 03:56:21;;;;;;;14.98;9.88;;;8.90;45.40;;;;;;7366477;19;20413;-68
2022/11/05 03:58:51;;;;;;;13.45;9.82;;;8.90;45.90;;;;;;7364716;19;20070;-68
2022/11/05 04:01:28;;;;;;;12.80;9.68;;;8.90;46.10;;;;;;7365046;19;20466;-67
2022/11/05 04:03:58;;;;;;;14.00;10.27;;;8.90;47.00;;;;;;7365562;19;20037;-68
2022/11/05 04:14:38;;;;;;;16.77;10.93;;;8.90;48.60;;;;;;7364786;19;20069;-67
2022/11/05 04:17:05;;;;;;;15.00;10.02;;;8.90;49.30;;;;;;7362567;19;20801;-67
2022/11/05 04:25:02;;;;;;;;;;;8.90;49.50;;;;;;7364593;19;20010;-67
2022/11/05 04:27:32;;;;;;;16.27;11.30;;;8.90;48.90;;;;;;7383751;19;19919;-67
2022/11/05 04:32:44;;;;;;;15.52;11.30;;;8.90;49.50;;;;;;7364437;19;20049;-67
2022/11/05 04:35:14;;;;;;;17.08;12.50;;;8.90;49.60;;;;;;7364053;19;20019;-67
2022/11/05 04:37:46;;;;;;;20.60;12.10;;;8.90;49.50;;;;;;7363863;19;20014;-67
2022/11/05 04:40:16;;;;;;;19.13;11.93;;;8.90;50.30;;;;;;7363374;19;20021;-67
2022/11/05 04:42:46;;;;;;;18.10;12.20;;;8.90;50.30;;;;;;7373248;19;20014;-67
2022/11/05 04:45:16;;;;;;;18.90;12.88;;;8.90;50.90;;;;;;7385728;19;20034;-67
2022/11/05 04:47:46;;;;;;;19.02;12.90;;;8.90;51.20;;;;;;7361540;19;20006;-67
2022/11/05 04:50:16;;;;;;;20.17;12.30;;;8.90;51.70;;;;;;7366651;19;20631;-67
2022/11/05 04:52:48;;;;;;;17.70;13.02;;;8.90;51.60;;;;;;7363652;19;20014;-66
2022/11/05 04:55:18;;;;;;;18.80;13.68;;;8.90;51.50;;;;;;7363503;19;20021;-68
2022/11/05 04:57:50;;;;;;;19.38;12.90;;;8.90;51.60;;;;;;7361084;19;20018;-68
2022/11/05 05:00:21;;;;;;;18.85;13.38;;;8.90;51.30;;;;;;7384009;19;20014;-68
2022/11/05 05:02:51;;;;;;;18.42;12.57;;;8.90;51.20;;;;;;7363069;19;20864;-68
2022/11/05 05:05:21;;;;;;;20.30;13.20;;;8.90;51.20;;;;;;7363271;19;20050;-68
2022/11/05 05:07:54;;;;;;;18.33;12.30;;;8.90;51.50;;;;;;7361986;19;20010;-66
2022/11/05 05:10:24;;;;;;;15.75;12.38;;;8.90;51.40;;;;;;7361800;19;20416;-68
2022/11/05 05:12:53;;;;;;;17.98;12.75;;;8.90;51.50;;;;;;7361963;19;20023;-69
2022/11/05 05:15:23;;;;;;;19.58;12.45;;;8.80;51.50;;;;;;7384043;19;20014;-68
2022/11/05 05:17:53;;;;;;;18.90;12.65;;;8.80;51.80;;;;;;7360154;19;20385;-68
2022/11/05 05:23:08;;;;;;;19.98;13.57;;;8.90;52.70;;;;;;7362729;19;20474;-68
2022/11/05 05:25:38;;;;;;;16.65;12.63;;;8.90;51.60;;;;;;7362845;19;20011;-67
2022/11/05 05:28:08;;;;;;;17.33;12.75;;;8.90;51.80;;;;;;7361217;19;20022;-67
2022/11/05 05:30:37;;;;;;;16.83;12.10;;;8.90;51.70;;;;;;7383173;19;20015;-68
2022/11/05 05:33:07;;;;;;;17.67;14.15;;;8.90;51.90;;;;;;7360727;19;20036;-67
2022/11/05 05:35:37;;;;;;;19.15;13.27;;;8.90;51.40;;;;;;7361297;19;20017;-68
2022/11/05 05:38:10;;;;;;;18.30;12.93;;;8.90;51.90;;;;;;7360480;19;20026;-68
2022/11/05 05:40:40;;;;;;;27.10;15.00;;;8.90;51.40;;;;;;7361950;19;20010;-67
2022/11/05 05:43:09;;;;;;;20.02;14.25;;;8.90;51.60;;;;;;7365659;19;20021;-68
2022/11/05 05:45:39;;;;;;;20.33;13.68;;;8.80;51.20;;;;;;7385226;19;20114;-67
2022/11/05 05:48:09;;;;;;;19.20;14.40;;;8.80;51.70;;;;;;7362935;19;20323;-66
2022/11/05 05:50:39;;;;;;;21.33;13.23;;;8.90;51.50;;;;;;7360540;19;20014;-68
2022/11/05 05:53:11;;;;;;;17.15;13.57;;;8.90;51.20;;;;;;7362501;19;20041;-68
2022/11/05 05:55:41;;;;;;;21.55;14.85;;;8.90;50.80;;;;;;7361373;19;20129;-68
2022/11/05 05:58:14;;;;;;;19.33;13.68;;;8.90;51.10;;;;;;7359731;19;20015;-68
2022/11/05 06:00:44;;;;;;;18.85;13.73;;;8.80;50.40;;;;;;7382535;19;20025;-67
2022/11/05 06:03:14;;;;;;;23.83;14.93;;;8.80;50.40;;;;;;7361280;19;20018;-67
2022/11/05 06:05:44;;;;;;;21.52;14.23;;;8.80;50.90;;;;;;7361254;19;20458;-67
2022/11/05 06:08:16;;;;;;;21.92;15.40;;;8.90;51.20;;;;;;7360187;19;20018;-68
2022/11/05 06:10:52;;;;;;;24.92;16.13;;;8.90;50.60;;;;;;7360140;19;20079;-67
2022/11/05 06:13:22;;;;;;;22.13;15.55;;;8.80;50.20;;;;;;7360851;19;20015;-68
2022/11/05 06:15:52;;;;;;;23.65;15.30;;;8.90;49.70;;;;;;7360451;19;20022;-67
2022/11/05 06:18:21;;;;;;;22.13;15.70;;;8.80;49.40;;;;;;7381414;19;20006;-67
2022/11/05 06:20:51;;;;;;;22.80;15.32;;;8.80;49.40;;;;;;7359428;19;20038;-68
2022/11/05 06:23:24;;;;;;;23.45;16.48;;;8.80;49.00;;;;;;7359615;19;20028;-67
2022/11/05 06:25:56;;;;;;;22.50;15.48;;;8.80;49.00;;;;;;7360213;19;20007;-67
2022/11/05 06:28:26;;;;;;;23.88;16.67;;;8.80;48.10;;;;;;7360072;19;20014;-67
2022/11/05 06:30:56;;;;;;;24.52;16.70;;;8.80;48.00;;;;;;7359622;19;20600;-67
2022/11/05 06:33:26;;;;;;;28.08;17.63;;;8.80;47.40;;;;;;7380684;19;20010;-67
2022/11/05 06:35:56;;;;;;;25.00;17.40;;;8.80;46.40;;;;;;7359142;19;20498;-68
2022/11/05 06:38:29;;;;;;;27.38;17.65;;;8.80;47.00;;;;;;7362168;19;20022;-68
2022/11/05 06:41:00;;;;;;;27.77;17.23;;;8.80;46.60;;;;;;7361381;19;20010;-67
2022/11/05 06:43:38;;;;;;;29.58;18.23;;;8.70;46.60;;;;;;7362233;19;20014;-68
2022/11/05 06:46:09;;;;;;;26.95;17.63;;;8.70;46.50;;;;;;7359686;19;20021;-67
2022/11/05 06:48:39;;;;;;;23.60;16.35;;;8.70;46.30;;;;;;7387376;19;20019;-67
2022/11/05 06:51:10;;;;;;;25.45;17.67;;;8.70;46.00;;;;;;7365897;19;20478;-68
2022/11/05 06:53:42;;;;;;;27.23;17.48;;;8.60;45.60;;;;;;7366142;19;20368;-67
2022/11/05 06:56:12;;;;;;;24.88;15.85;;;8.70;46.40;;;;;;7365201;19;20432;-67
2022/11/05 06:58:42;;;;;;;24.60;17.13;;;8.80;46.60;;;;;;7365723;19;20238;-68
2022/11/05 07:01:12;;;;;;;24.48;17.73;;;8.70;45.30;;;;;;7367372;19;20109;-69
2022/11/05 07:03:43;;;;;;;27.85;17.73;;;8.80;45.50;;;;;;7389106;19;20719;-68
2022/11/05 07:06:13;;;;;;;30.38;18.65;;;8.90;44.60;;;;;;7365880;19;20018;-66
2022/11/05 07:08:46;;;;;;;26.00;17.52;;;8.90;43.70;;;;;;7365981;19;20011;-67
2022/11/05 07:11:15;;;;;;;26.02;17.73;;;8.90;42.30;;;;;;7366278;19;20026;-67
2022/11/05 07:13:45;;;;;;;28.23;17.80;;;9.10;43.60;;;;;;7366081;19;20497;-67
2022/11/05 07:16:15;;;;;;;28.27;18.23;;;9.10;42.40;;;;;;7365267;19;20018;-68
2022/11/05 07:18:45;;;;;;;27.52;17.08;;;9.10;42.00;;;;;;7387029;19;20490;-68
2022/11/05 07:21:15;;;;;;;26.27;17.17;;;9.10;41.40;;;;;;7365163;19;20384;-68
2022/11/05 07:23:47;;;;;;;29.38;18.25;;;9.00;41.40;;;;;;7366088;19;20015;-67
2022/11/05 07:26:19;;;;;;;24.25;16.55;;;9.10;42.80;;;;;;7364356;19;20475;-67
2022/11/05 07:28:49;;;;;;;25.88;17.10;;;9.00;43.50;;;;;;7365594;19;20010;-68
2022/11/05 07:31:19;;;;;;;24.77;17.58;;;9.00;43.50;;;;;;7365409;19;20541;-68
2022/11/05 07:33:49;;;;;;;24.08;16.15;;;9.00;44.00;;;;;;7364174;19;20015;-69
2022/11/05 07:36:18;;;;;;;27.42;18.23;;;9.00;43.90;;;;;;7385896;19;20395;-68
2022/11/05 07:38:51;;;;;;;25.92;17.13;;;9.00;44.30;;;;;;7368161;19;20035;-68
2022/11/05 07:41:28;;;;;;;26.50;16.20;;;8.90;44.60;;;;;;7365826;19;20044;-68
2022/11/05 07:43:58;;;;;;;29.83;17.65;;;8.90;45.20;;;;;;7366300;19;20018;-68
2022/11/05 07:46:28;;;;;;;24.75;16.92;;;9.00;45.10;;;;;;7364702;19;20038;-67
2022/11/05 07:48:58;;;;;;;25.55;16.65;;;8.90;44.40;;;;;;7367756;19;20018;-67
2022/11/05 07:51:27;;;;;;;26.65;17.17;;;8.90;44.60;;;;;;7386464;19;20014;-67
2022/11/05 07:54:00;;;;;;;26.23;15.98;;;8.80;44.10;;;;;;7363474;19;20014;-68
2022/11/05 07:56:30;;;;;;;25.90;17.70;;;8.80;45.30;;;;;;7364466;19;20030;-68
2022/11/05 07:59:00;;;;;;;29.67;16.70;;;8.90;45.40;;;;;;7364505;19;20011;-68
2022/11/05 08:01:30;;;;;;;25.92;17.02;;;8.90;44.10;;;;;;7363693;19;20018;-68
2022/11/05 08:04:00;;;;;;;27.77;17.65;;;8.90;44.40;;;;;;7365353;19;20018;-68
2022/11/05 08:06:29;;;;;;;28.05;17.23;;;8.90;45.20;;;;;;7385413;19;20014;-68
2022/11/05 08:09:02;;;;;;;25.92;16.42;;;9.00;45.20;;;;;;7363351;19;20042;-68
2022/11/05 08:11:34;;;;;;;25.42;16.40;;;9.00;44.00;;;;;;7364282;19;20014;-68
2022/11/05 08:14:03;;;;;;;27.00;15.93;;;8.90;44.00;;;;;;7364185;19;20036;-68
2022/11/05 08:16:33;;;;;;;25.75;15.48;;;8.90;44.00;;;;;;7363662;19;20018;-66
2022/11/05 08:19:03;;;;;;;22.45;14.20;;;8.80;41.50;;;;;;7363763;19;20010;-68
2022/11/05 08:21:33;;;;;;;19.42;13.05;;;8.70;42.80;;;;;;7385295;19;20018;-67
2022/11/05 08:24:06;;;;;;;19.85;12.70;;;8.60;42.70;;;;;;7364657;19;20538;-67
2022/11/05 08:26:36;;;;;;;19.45;12.48;;;8.60;42.50;;;;;;7362031;19;20042;-68
2022/11/05 08:29:05;;;;;;;19.67;12.88;;;8.60;43.10;;;;;;7364552;19;20015;-67
2022/11/05 08:31:35;;;;;;;19.33;11.18;;;8.60;43.00;;;;;;7363771;19;20379;-67
2022/11/05 08:34:06;;;;;;;13.50;9.23;;;8.50;41.70;;;;;;7365414;19;20024;-67
2022/11/05 08:36:36;;;;;;;16.75;9.82;;;8.30;41.80;;;;;;7386872;19;20414;-67
2022/11/05 08:39:09;;;;;;;12.95;8.48;;;8.50;42.80;;;;;;7367270;19;20443;-67
2022/11/05 08:41:45;;;;;;;11.75;7.80;;;8.40;40.90;;;;;;7364810;19;20470;-68
2022/11/05 08:44:15;;;;;;;11.98;8.57;;;8.40;41.30;;;;;;7363730;19;20046;-66
2022/11/05 08:46:45;;;;;;;10.73;7.57;;;8.50;41.00;;;;;;7361535;19;20025;-67
2022/11/05 08:49:15;;;;;;;10.30;7.30;;;8.50;40.10;;;;;;7365362;19;20076;-67
2022/11/05 08:51:45;;;;;;;10.90;8.25;;;8.50;39.90;;;;;;7385553;19;20018;-75
2022/11/05 08:54:18;;;;;;;10.93;7.80;;;8.50;39.90;;;;;;7382968;19;20014;-67
2022/11/05 08:56:47;;;;;;;10.88;7.65;;;8.50;40.10;;;;;;7360477;19;20091;-68
2022/11/05 08:59:17;;;;;;;12.60;7.35;;;8.40;38.00;;;;;;7362672;19;20018;-67
2022/11/05 09:01:49;;;;;;;10.88;7.95;;;8.40;39.10;;;;;;7362518;19;20010;-68
2022/11/05 09:04:19;;;;;;;11.25;6.57;;;8.60;40.10;;;;;;7363152;19;20024;-67
2022/11/05 09:06:49;;;;;;;10.25;7.60;;;8.40;38.40;;;;;;7360748;19;20015;-68
2022/11/05 09:09:21;;;;;;;9.88;7.07;;;8.50;39.20;;;;;;7383529;19;20017;-67
2022/11/05 09:11:51;;;;;;;8.00;6.60;;;8.50;40.20;;;;;;7360261;19;20018;-67
2022/11/05 09:14:41;;;;;;;11.23;7.55;;;8.50;41.20;;;;;;7360670;19;20007;-66
2022/11/05 09:17:18;;;;;;;12.38;7.85;;;8.60;42.40;;;;;;7358964;19;20526;-66
2022/11/05 09:19:48;;;;;;;12.68;8.20;;;8.60;41.00;;;;;;7361739;19;20021;-66
2022/11/05 09:22:18;;;;;;;12.38;8.23;;;8.60;41.10;;;;;;7362148;19;20118;-66
2022/11/05 09:24:50;;;;;;;12.55;8.35;;;8.60;42.10;;;;;;7361548;19;20014;-68
2022/11/05 09:27:20;;;;;;;13.10;8.90;;;8.50;40.90;;;;;;7380596;19;20038;-67
2022/11/05 09:29:50;;;;;;;12.45;8.75;;;8.50;40.90;;;;;;7361243;19;20474;-67
2022/11/05 09:32:22;;;;;;;12.23;8.32;;;8.50;40.10;;;;;;7365989;19;20042;-67
2022/11/05 09:34:51;;;;;;;11.25;8.40;;;8.50;40.70;;;;;;7360992;19;20057;-68
2022/11/05 09:37:21;;;;;;;12.00;8.52;;;8.50;39.40;;;;;;7356906;19;20021;-68
2022/11/05 09:39:54;;;;;;;10.85;7.68;;;8.50;38.20;;;;;;7356940;19;20023;-69
2022/11/05 09:42:27;;;;;;;11.35;8.35;;;8.40;36.00;;;;;;7381396;19;20812;-68
2022/11/05 09:45:00;;;;;;;13.75;9.15;;;8.60;38.30;;;;;;7357818;19;20396;-68
2022/11/05 09:47:35;;;;;;;12.75;8.80;;;8.80;39.00;;;;;;7354757;19;20026;-68
2022/11/05 09:50:10;;;;;;;11.95;8.38;;;8.90;37.30;;;;;;7359206;19;20018;-69
2022/11/05 09:52:40;;;;;;;12.85;8.57;;;8.90;35.10;;;;;;7361803;19;20011;-68
2022/11/05 09:55:21;;;;;;;10.73;8.18;;;8.90;34.30;;;;;;7360453;19;20019;-68
2022/11/05 09:57:56;;;;;;;12.68;7.72;;;8.90;29.80;;;;;;7358531;19;20014;-69
2022/11/05 10:00:26;;;;;;;11.65;8.70;;;9.10;31.80;;;;;;7381603;19;20478;-68
2022/11/05 10:02:58;;;;;;;12.25;8.60;;;9.00;29.80;;;;;;7359669;19;20014;-67
2022/11/05 10:05:29;;;;;;;12.95;9.02;;;8.90;32.10;;;;;;7359971;19;20091;-67
2022/11/05 10:08:01;;;;;;;15.15;9.57;;;9.00;34.80;;;;;;7359299;19;20525;-69
2022/11/05 10:10:41;;;;;;;12.70;8.93;;;9.00;34.40;;;;;;7359758;19;20042;-68
2022/11/05 10:13:20;;;;;;;14.45;9.38;;;8.90;32.80;;;;;;7360550;19;20015;-68
2022/11/05 10:15:56;;;;;;;13.65;9.02;;;8.90;35.90;;;;;;7359244;19;20026;-68
2022/11/05 10:18:30;;;;;;;17.15;10.55;;;9.00;32.90;;;;;;7381150;19;20015;-68
2022/11/05 10:21:00;;;;;;;16.58;9.48;;;9.00;35.80;;;;;;7359394;19;20018;-68
2022/11/05 10:23:31;;;;;;;20.23;10.35;;;9.00;36.30;;;;;;7358868;19;20011;-68
2022/11/05 10:26:06;;;;;;;14.27;10.55;;;9.00;36.80;;;;;;7360051;19;20454;-69
2022/11/05 10:28:37;;;;;;;16.05;9.93;;;8.90;37.90;;;;;;7360746;19;20014;-69
2022/11/05 10:31:10;;;;;;;15.50;10.48;;;8.70;37.30;;;;;;7358597;19;20341;-68
2022/11/05 10:33:43;;;;;;;20.63;10.73;;;8.80;39.90;;;;;;7381389;19;20521;-67
2022/11/05 10:36:17;;;;;;;17.63;10.93;;;8.70;37.80;;;;;;7358330;19;20022;-68
2022/11/05 10:38:46;;;;;;;16.98;10.13;;;8.80;37.80;;;;;;7360654;19;20042;-69
2022/11/05 10:41:37;;;;;;;15.98;10.13;;;8.70;34.10;;;;;;7360035;19;20026;-69
2022/11/05 10:44:17;;;;;;;16.08;10.50;;;8.60;34.60;;;;;;7358898;19;20478;-67
2022/11/05 10:46:59;;;;;;;16.67;10.23;;;8.70;37.90;;;;;;7357886;19;20014;-69
2022/11/05 10:49:44;;;;;;;16.35;10.82;;;8.80;37.90;;;;;;7361833;19;20015;-69
2022/11/05 10:52:23;;;;;;;20.67;10.95;;;8.80;37.80;;;;;;7359592;19;20047;-69
2022/11/05 10:54:56;;;;;;;19.65;11.68;;;9.10;39.20;;;;;;7358955;19;20120;-69
2022/11/05 10:57:35;;;;;;;17.58;11.05;;;9.30;38.80;;;;;;7378429;19;20022;-69
2022/11/05 11:00:29;;;;;;;16.33;11.35;;;9.10;37.10;;;;;;7358633;19;20398;-68
2022/11/05 11:03:01;;;;;;;17.85;12.00;;;9.50;38.40;;;;;;7358772;19;20032;-68
2022/11/05 11:05:34;;;;;;;17.08;11.20;;;9.60;35.90;;;;;;7359059;19;20046;-70
2022/11/05 11:08:17;;;;;;;14.55;9.85;;;9.40;31.60;;;;;;7357846;19;20919;-69
2022/11/05 11:10:51;;;;;;;16.15;11.20;;;9.40;31.30;;;;;;7358480;19;20053;-70
2022/11/05 11:13:26;;;;;;;20.10;11.77;;;9.50;33.30;;;;;;7359603;19;20011;-69
2022/11/05 11:15:56;;;;;;;;;;;9.50;32.40;;;;;;7357329;19;20011;-69
2022/11/05 11:18:29;;;;;;;20.88;11.13;;;9.20;29.10;;;;;;7379683;19;19926;-69
2022/11/05 11:21:14;;;;;;;17.13;11.32;;;9.20;33.10;;;;;;7357850;19;20019;-69
2022/11/05 11:23:45;;;;;;;20.40;12.57;;;9.20;33.00;;;;;;7361340;19;20019;-69
2022/11/05 11:26:15;;;;;;;19.48;11.90;;;9.50;35.00;;;;;;7359684;19;20014;-69
2022/11/05 11:28:50;;;;;;;18.45;12.07;;;9.60;34.10;;;;;;7358141;19;20014;-69
2022/11/05 11:31:24;;;;;;;16.45;10.40;;;9.70;33.50;;;;;;7357575;19;20025;-69
2022/11/05 11:33:59;;;;;;;14.40;9.40;;;9.50;28.40;;;;;;7358530;19;20084;-69
2022/11/05 11:36:35;;;;;;;16.25;10.07;;;9.30;26.70;;;;;;7383802;19;20474;-68
2022/11/05 11:39:08;;;;;;;19.80;11.32;;;9.60;29.70;;;;;;7369397;19;20014;-68
2022/11/05 11:41:41;;;;;;;17.85;10.57;;;9.90;28.80;;;;;;7366994;19;20503;-68
2022/11/05 11:44:17;;;;;;;17.98;10.93;;;10.30;26.10;;;;;;7365290;19;20019;-68
2022/11/05 11:46:50;;;;;;;13.23;9.32;;;10.40;21.50;;;;;;7363137;19;20021;-68
2022/11/05 11:49:35;;;;;;;14.88;9.05;;;10.30;22.30;;;;;;7368040;19;20018;-68
2022/11/05 11:52:10;;;;;;;11.75;8.30;;;10.10;20.10;;;;;;7365972;19;20014;-69
2022/11/05 11:54:40;;;;;;;15.07;9.85;;;10.20;19.20;;;;;;7386302;19;20018;-68
2022/11/05 11:57:23;;;;;;;13.57;9.05;;;10.20;20.40;;;;;;7360939;19;20007;-69
2022/11/05 11:59:57;;;;;;;15.27;8.73;;;10.10;19.80;;;;;;7363936;19;20007;-69
2022/11/05 12:03:08;;;;;;;13.07;9.18;;;10.10;22.10;;;;;;7364946;19;20014;-70
2022/11/05 12:05:42;;;;;;;;;;;10.10;18.00;;;;;;7365319;19;20015;-68
2022/11/05 12:08:31;;;;;;;16.58;8.68;;;10.00;16.60;;;;;;7363213;19;19919;-68
2022/11/05 12:11:08;;;;;;;14.38;9.02;;;10.00;17.80;;;;;;7364859;19;20033;-69
2022/11/05 12:14:01;;;;;;;18.30;9.63;;;10.20;17.80;;;;;;7364491;19;20021;-68
2022/11/05 12:17:02;;;;;;;13.60;9.00;;;10.60;18.30;;;;;;7361985;19;20037;-68
2022/11/05 12:20:03;;;;;;;13.05;7.60;;;10.40;12.20;;;;;;7366275;19;20018;-67
2022/11/05 12:22:50;;;;;;;11.27;7.75;;;10.20;11.50;;;;;;7364534;19;20011;-68
2022/11/05 12:25:27;;;;;;;14.18;8.95;;;10.30;10.10;;;;;;7363377;19;20018;-68
2022/11/05 12:28:12;;;;;;;11.80;8.43;;;10.20;13.20;;;;;;7361639;19;20014;-69
2022/11/05 12:30:50;;;;;;;13.48;9.23;;;10.20;13.40;;;;;;7384715;19;20014;-69
2022/11/05 12:33:41;;;;;;;12.68;9.20;;;10.20;11.50;;;;;;7364388;19;20022;-69
2022/11/05 12:36:20;;;;;;;12.63;8.75;;;10.30;11.70;;;;;;7362627;19;20019;-68
2022/11/05 12:39:18;;;;;;;13.18;8.85;;;10.30;12.70;;;;;;7366235;19;20075;-68
2022/11/05 12:41:52;;;;;;;12.70;8.88;;;10.30;11.60;;;;;;7365538;19;20488;-68
2022/11/05 12:44:38;;;;;;;14.48;8.30;;;10.40;13.70;;;;;;7364161;19;20021;-68
2022/11/05 12:47:20;;;;;;;12.30;7.50;;;10.30;14.00;;;;;;7361179;19;20010;-68
2022/11/05 12:50:05;;;;;;;12.40;7.43;;;10.20;11.40;;;;;;7362612;19;20018;-68
2022/11/05 12:53:02;;;;;;;10.10;7.15;;;10.30;11.10;;;;;;7364727;19;20034;-68
2022/11/05 12:55:38;;;;;;;13.50;7.82;;;10.30;8.00;;;;;;7363600;19;20010;-68
2022/11/05 12:58:19;;;;;;;10.45;7.45;;;10.40;7.40;;;;;;7360900;19;20022;-68
2022/11/05 13:00:56;;;;;;;16.05;8.23;;;10.40;5.00;;;;;;7362045;19;20033;-69
2022/11/05 13:03:39;;;;;;;13.10;8.00;;;10.50;8.00;;;;;;7384493;19;20014;-69
2022/11/05 13:06:14;;;;;;;11.75;6.90;;;10.50;7.60;;;;;;7361659;19;20015;-69
2022/11/05 13:08:53;;;;;;;12.05;7.05;;;10.40;3.90;;;;;;7360696;19;20047;-68
2022/11/05 13:11:28;;;;;;;9.40;6.45;;;10.40;4.40;;;;;;7361943;19;20014;-68
2022/11/05 13:14:06;;;;;;;12.85;6.88;;;10.40;5.20;;;;;;7362723;19;20011;-68
2022/11/05 13:16:39;;;;;;;11.85;6.78;;;10.40;5.90;;;;;;7362988;19;20014;-68
2022/11/05 13:19:18;;;;;;;8.85;7.03;;;10.40;4.20;;;;;;7362785;19;20021;-68
2022/11/05 13:21:54;;;;;;;9.52;6.65;;;10.40;6.40;;;;;;7363014;19;20110;-70
2022/11/05 13:24:28;;;;;;;10.60;6.25;;;10.40;6.10;;;;;;7383007;19;20015;-69
2022/11/05 13:27:05;;;;;;;8.98;6.10;;;10.40;2.60;;;;;;7359414;19;20015;-69
2022/11/05 13:29:40;;;;;;;10.88;5.63;;;10.40;3.00;;;;;;7361370;19;20018;-68
2022/11/05 13:32:26;;;;;;;7.45;5.15;;;10.30;2.20;;;;;;7362339;19;20018;-68
2022/11/05 13:34:57;;;;;;;9.38;5.43;;;10.20;1.50;;;;;;7361714;19;20075;-68
2022/11/05 13:40:24;;;;;;;10.20;6.25;;;10.20;1.60;;;;;;7361641;19;20413;-68
2022/11/05 13:43:11;;;;;;;10.75;5.70;;;10.10;2.20;;;;;;7364693;19;20018;-68
2022/11/05 13:46:01;;;;;;;10.10;6.70;;;10.10;3.50;;;;;;7382460;19;20025;-67
2022/11/05 13:49:10;;;;;;;11.27;6.05;;;10.10;2.90;;;;;;7363651;19;20018;-68
2022/11/05 13:51:50;;;;;;;10.82;6.45;;;10.20;3.90;;;;;;7361419;19;20011;-68
2022/11/05 13:54:50;;;;;;;14.35;5.95;;;10.20;4.70;;;;;;7361500;19;20031;-68
2022/11/05 13:57:50;;;;;;;8.38;5.95;;;10.10;4.10;;;;;;7356569;19;20354;-68
2022/11/05 14:00:25;;;;;;;12.18;5.65;;;10.10;5.80;;;;;;7360181;19;20010;-68
2022/11/05 14:02:58;;;;;;;8.77;5.80;;;10.10;4.40;;;;;;7360926;19;20018;-69
2022/11/05 14:05:32;;;;;;;9.73;5.57;;;10.10;2.70;;;;;;7360642;19;20014;-67
2022/11/05 14:08:03;;;;;;;9.07;6.35;;;10.00;4.10;;;;;;7360210;19;20015;-68